Time;durP1;ratioP1;P1;durP2;ratioP2;P2;SDS_P1;SDS_P2;PMS_P1;PMS_P2;Temp;Humidity;BMP_temperature;BMP_pressure;BME280_temperature;BME280_humidity;BME280_pressure;Samples;Min_cycle;Max_cycle;Signal;HPM_P1;HPM_P2
2023/08/02 00:00:34;;;;;;;4.20;1.80;;;;;;;;;;5076913;28;20056;-81
2023/08/02 00:02:59;;;;;;;3.53;1.60;;;;;;;;;;5074908;28;20127;-81
2023/08/02 00:05:25;;;;;;;4.90;1.40;;;;;;;;;;5076140;28;20514;-81
2023/08/02 00:07:50;;;;;;;2.05;1.30;;;;;;;;;;5076605;28;20037;-81
2023/08/02 00:10:16;;;;;;;4.65;1.50;;;;;;;;;;5076641;28;20034;-81
2023/08/02 00:12:41;;;;;;;3.35;1.73;;;;;;;;;;5076104;28;20056;-81
2023/08/02 00:15:07;;;;;;;1.42;1.30;;;;;;;;;;5074737;28;20437;-81
2023/08/02 00:17:32;;;;;;;2.72;1.50;;;;;;;;;;5074776;28;20037;-81
2023/08/02 00:19:57;;;;;;;2.67;1.30;;;;;;;;;;5076287;28;20028;-81
2023/08/02 00:22:23;;;;;;;2.85;1.67;;;;;;;;;;5074808;28;20475;-81
2023/08/02 00:24:48;;;;;;;3.28;1.50;;;;;;;;;;5075727;28;20128;-81
2023/08/02 00:27:13;;;;;;;2.67;1.45;;;;;;;;;;5075024;28;20033;-82
2023/08/02 00:29:40;;;;;;;3.17;1.58;;;;;;;;;;5074879;28;20379;-81
2023/08/02 00:32:06;;;;;;;7.43;1.80;;;;;;;;;;5075762;28;20033;-82
2023/08/02 00:34:31;;;;;;;2.75;1.55;;;;;;;;;;5076010;28;20048;-82
2023/08/02 00:36:57;;;;;;;4.82;1.60;;;;;;;;;;5075671;28;20036;-81
2023/08/02 00:39:22;;;;;;;4.85;1.55;;;;;;;;;;5076078;28;20111;-81
2023/08/02 00:41:48;;;;;;;3.28;1.67;;;;;;;;;;5074425;28;20032;-81
2023/08/02 00:44:13;;;;;;;3.70;1.73;;;;;;;;;;5076106;28;20028;-81
2023/08/02 00:46:39;;;;;;;3.00;1.58;;;;;;;;;;5057419;28;20044;-81
2023/08/02 00:49:04;;;;;;;1.90;1.30;;;;;;;;;;5075476;28;20032;-82
2023/08/02 00:51:32;;;;;;;3.42;1.92;;;;;;;;;;5075761;28;20036;-82
2023/08/02 00:54:02;;;;;;;4.15;1.67;;;;;;;;;;5057047;28;20024;-81
2023/08/02 00:56:28;;;;;;;2.08;1.25;;;;;;;;;;5074284;28;20028;-81
2023/08/02 00:58:53;;;;;;;2.60;1.58;;;;;;;;;;5057238;28;20020;-82
2023/08/02 01:01:19;;;;;;;3.38;1.70;;;;;;;;;;5075540;28;20035;-81
2023/08/02 01:03:44;;;;;;;3.45;1.80;;;;;;;;;;5075355;28;20029;-81
2023/08/02 01:06:31;;;;;;;2.45;1.60;;;;;;;;;;5075379;28;20028;-81
2023/08/02 01:09:02;;;;;;;2.58;1.23;;;;;;;;;;5075265;28;20032;-80
2023/08/02 01:11:44;;;;;;;3.03;1.48;;;;;;;;;;5075290;28;20023;-81
2023/08/02 01:14:12;;;;;;;2.78;1.58;;;;;;;;;;5074300;28;20530;-80
2023/08/02 01:16:38;;;;;;;2.45;1.42;;;;;;;;;;5074800;28;20030;-80
2023/08/02 01:19:10;;;;;;;2.65;1.27;;;;;;;;;;5075148;28;20469;-80
2023/08/02 01:21:36;;;;;;;2.70;1.60;;;;;;;;;;5073868;28;20039;-80
2023/08/02 01:24:02;;;;;;;3.17;1.52;;;;;;;;;;5056641;28;20414;-80
2023/08/02 01:26:29;;;;;;;3.92;1.63;;;;;;;;;;5073479;28;20559;-80
2023/08/02 01:28:56;;;;;;;3.42;1.60;;;;;;;;;;5073488;28;20024;-80
2023/08/02 01:31:21;;;;;;;3.28;1.45;;;;;;;;;;5073955;28;20420;-80
2023/08/02 01:33:50;;;;;;;3.05;2.10;;;;;;;;;;5056584;28;20071;-80
2023/08/02 01:36:16;;;;;;;3.15;1.80;;;;;;;;;;5056599;28;20029;-80
2023/08/02 01:38:42;;;;;;;3.67;1.80;;;;;;;;;;5073250;28;20116;-80
2023/08/02 01:41:07;;;;;;;2.80;1.55;;;;;;;;;;5074387;28;20107;-80
2023/08/02 01:43:32;;;;;;;2.15;1.38;;;;;;;;;;5073730;28;20402;-80
2023/08/02 01:45:58;;;;;;;1.65;1.30;;;;;;;;;;5073658;28;20063;-80
2023/08/02 01:48:25;;;;;;;3.05;1.75;;;;;;;;;;5074411;28;20112;-79
2023/08/02 01:50:51;;;;;;;3.08;1.40;;;;;;;;;;5074512;28;20032;-79
2023/08/02 01:53:16;;;;;;;3.38;1.60;;;;;;;;;;5073067;28;20028;-80
2023/08/02 01:55:42;;;;;;;2.45;1.23;;;;;;;;;;5074372;28;20475;-80
2023/08/02 01:58:08;;;;;;;2.80;1.42;;;;;;;;;;5072928;28;20024;-80
2023/08/02 02:00:33;;;;;;;2.78;1.58;;;;;;;;;;5072851;28;20032;-80
2023/08/02 02:02:58;;;;;;;2.47;1.58;;;;;;;;;;5073943;28;20031;-80
2023/08/02 02:05:24;;;;;;;2.20;1.50;;;;;;;;;;5074297;28;20048;-80
2023/08/02 02:07:49;;;;;;;2.08;1.17;;;;;;;;;;5073143;28;20032;-80
2023/08/02 02:10:15;;;;;;;2.88;1.60;;;;;;;;;;5074159;28;20477;-80
2023/08/02 02:12:40;;;;;;;5.13;1.45;;;;;;;;;;5072609;28;20035;-79
2023/08/02 02:15:06;;;;;;;2.10;1.35;;;;;;;;;;5074024;28;20037;-80
2023/08/02 02:17:31;;;;;;;1.95;1.40;;;;;;;;;;5074075;28;20056;-80
2023/08/02 02:19:57;;;;;;;2.08;1.45;;;;;;;;;;5072516;28;20032;-80
2023/08/02 02:22:22;;;;;;;3.72;1.58;;;;;;;;;;5073005;28;20123;-80
2023/08/02 02:24:47;;;;;;;2.25;1.50;;;;;;;;;;5072324;28;20051;-80
2023/08/02 02:27:13;;;;;;;2.53;1.60;;;;;;;;;;5073665;28;20113;-79
2023/08/02 02:29:38;;;;;;;2.50;1.30;;;;;;;;;;5073514;28;20036;-80
2023/08/02 02:32:04;;;;;;;2.65;1.50;;;;;;;;;;5073524;28;20466;-80
2023/08/02 02:34:29;;;;;;;2.83;1.50;;;;;;;;;;5072219;28;20033;-80
2023/08/02 02:36:55;;;;;;;2.47;1.67;;;;;;;;;;5072208;28;20128;-80
2023/08/02 02:39:20;;;;;;;5.68;1.60;;;;;;;;;;5073600;28;20051;-80
2023/08/02 02:41:45;;;;;;;2.53;1.55;;;;;;;;;;5073060;28;20099;-80
2023/08/02 02:44:11;;;;;;;1.85;1.20;;;;;;;;;;5072079;28;20404;-80
2023/08/02 02:46:36;;;;;;;3.03;1.40;;;;;;;;;;5073529;28;20052;-80
2023/08/02 02:49:01;;;;;;;4.20;1.80;;;;;;;;;;5055391;28;20041;-80
2023/08/02 02:51:27;;;;;;;2.60;1.45;;;;;;;;;;5073714;28;20035;-80
2023/08/02 02:53:52;;;;;;;2.88;1.42;;;;;;;;;;5073524;28;20028;-80
2023/08/02 02:56:17;;;;;;;1.55;1.40;;;;;;;;;;5071997;28;20039;-80
2023/08/02 02:58:43;;;;;;;2.15;1.33;;;;;;;;;;5073201;28;20021;-80
2023/08/02 03:01:08;;;;;;;2.15;1.65;;;;;;;;;;5073491;28;20052;-80
2023/08/02 03:03:34;;;;;;;4.05;1.70;;;;;;;;;;5071883;28;20036;-80
2023/08/02 03:06:01;;;;;;;1.73;1.30;;;;;;;;;;5073662;28;20032;-80
2023/08/02 03:08:26;;;;;;;2.35;1.40;;;;;;;;;;5073578;28;20029;-80
2023/08/02 03:10:52;;;;;;;2.33;1.40;;;;;;;;;;5071817;28;20441;-80
2023/08/02 03:13:17;;;;;;;1.65;1.33;;;;;;;;;;5073314;28;20094;-80
2023/08/02 03:15:43;;;;;;;3.03;1.40;;;;;;;;;;5072998;28;20025;-80
2023/08/02 03:18:08;;;;;;;2.20;1.60;;;;;;;;;;5074991;28;20379;-80
2023/08/02 03:20:33;;;;;;;2.75;1.40;;;;;;;;;;5076019;28;20024;-80
2023/08/02 03:22:59;;;;;;;2.58;1.50;;;;;;;;;;5076117;28;20082;-80
2023/08/02 03:25:24;;;;;;;2.00;1.50;;;;;;;;;;5076102;28;20361;-80
2023/08/02 03:27:49;;;;;;;2.95;1.30;;;;;;;;;;5076994;28;20021;-80
2023/08/02 03:30:15;;;;;;;4.10;1.83;;;;;;;;;;5076998;28;20032;-80
2023/08/02 03:32:40;;;;;;;4.15;1.60;;;;;;;;;;5077085;28;20029;-81
2023/08/02 03:35:06;;;;;;;1.58;1.40;;;;;;;;;;5077136;28;20116;-80
2023/08/02 03:37:32;;;;;;;2.60;1.67;;;;;;;;;;5058775;28;20120;-80
2023/08/02 03:39:57;;;;;;;1.80;1.23;;;;;;;;;;5077190;28;20035;-80
2023/08/02 03:42:22;;;;;;;2.28;1.40;;;;;;;;;;5075561;28;20143;-80
2023/08/02 03:44:48;;;;;;;3.03;1.50;;;;;;;;;;5076919;28;20028;-80
2023/08/02 03:47:13;;;;;;;1.70;1.38;;;;;;;;;;5076795;28;20120;-80
2023/08/02 03:49:38;;;;;;;2.63;1.25;;;;;;;;;;5075250;28;20032;-80
2023/08/02 03:52:04;;;;;;;3.35;1.70;;;;;;;;;;5076522;28;20063;-80
2023/08/02 03:54:29;;;;;;;1.67;1.40;;;;;;;;;;5075267;28;20479;-80
2023/08/02 03:56:55;;;;;;;1.73;1.20;;;;;;;;;;5058462;28;20464;-80
2023/08/02 03:59:20;;;;;;;1.40;1.20;;;;;;;;;;5075476;28;20024;-80
2023/08/02 04:01:46;;;;;;;3.00;1.63;;;;;;;;;;5076565;28;20533;-80
2023/08/02 04:04:11;;;;;;;3.42;1.80;;;;;;;;;;5076376;28;20371;-80
2023/08/02 04:06:36;;;;;;;2.60;1.50;;;;;;;;;;5076378;28;20052;-80
2023/08/02 04:09:02;;;;;;;2.50;1.40;;;;;;;;;;5076431;28;20471;-80
2023/08/02 04:11:27;;;;;;;1.90;1.40;;;;;;;;;;5076370;28;20442;-80
2023/08/02 04:13:53;;;;;;;1.95;1.42;;;;;;;;;;5058122;28;20028;-80
2023/08/02 04:16:18;;;;;;;2.70;1.52;;;;;;;;;;5074706;28;20039;-80
2023/08/02 04:18:44;;;;;;;2.70;1.27;;;;;;;;;;5075098;28;20039;-80
2023/08/02 04:21:09;;;;;;;2.47;1.63;;;;;;;;;;5076363;28;20372;-80
2023/08/02 04:23:34;;;;;;;1.73;1.48;;;;;;;;;;5076183;28;20136;-80
2023/08/02 04:26:08;;;;;;;1.80;1.38;;;;;;;;;;5076150;28;20032;-80
2023/08/02 04:28:33;;;;;;;2.00;1.48;;;;;;;;;;5075724;28;20020;-80
2023/08/02 04:30:59;;;;;;;2.15;1.33;;;;;;;;;;5075744;28;20077;-80
2023/08/02 04:33:24;;;;;;;3.15;1.50;;;;;;;;;;5076087;28;20028;-80
2023/08/02 04:35:49;;;;;;;1.20;1.10;;;;;;;;;;5057773;28;20403;-80
2023/08/02 04:38:15;;;;;;;2.22;1.38;;;;;;;;;;5075642;28;20166;-80
2023/08/02 04:40:40;;;;;;;1.85;1.55;;;;;;;;;;5057490;28;20039;-80
2023/08/02 04:43:06;;;;;;;5.35;1.33;;;;;;;;;;5074229;28;20028;-80
2023/08/02 04:45:31;;;;;;;2.47;1.60;;;;;;;;;;5075783;28;20029;-80
2023/08/02 04:47:56;;;;;;;2.58;1.40;;;;;;;;;;5057576;28;20037;-81
2023/08/02 04:50:22;;;;;;;1.40;1.30;;;;;;;;;;5074235;28;20033;-79
2023/08/02 04:52:47;;;;;;;1.58;1.20;;;;;;;;;;5075372;28;20063;-79
2023/08/02 04:55:12;;;;;;;1.85;1.23;;;;;;;;;;5075601;28;20028;-80
2023/08/02 04:57:38;;;;;;;3.10;1.35;;;;;;;;;;5057396;28;20394;-80
2023/08/02 05:00:04;;;;;;;2.53;1.20;;;;;;;;;;5073947;28;20028;-81
2023/08/02 05:02:33;;;;;;;2.35;1.30;;;;;;;;;;5075333;28;20064;-81
2023/08/02 05:05:00;;;;;;;2.20;1.45;;;;;;;;;;5075305;28;20395;-81
2023/08/02 05:07:26;;;;;;;2.15;1.13;;;;;;;;;;5074314;28;20028;-82
2023/08/02 05:09:51;;;;;;;3.38;1.60;;;;;;;;;;5075786;28;20539;-82
2023/08/02 05:12:17;;;;;;;2.22;1.30;;;;;;;;;;5074127;28;20028;-81
2023/08/02 05:14:42;;;;;;;1.55;1.35;;;;;;;;;;5075420;28;20033;-81
2023/08/02 05:17:07;;;;;;;1.70;1.20;;;;;;;;;;5073845;28;20403;-80
2023/08/02 05:19:33;;;;;;;2.75;1.30;;;;;;;;;;5074485;28;20033;-82
2023/08/02 05:21:59;;;;;;;1.27;1.17;;;;;;;;;;5074045;28;20085;-81
2023/08/02 05:24:24;;;;;;;3.13;1.60;;;;;;;;;;5073463;28;20124;-80
2023/08/02 05:26:49;;;;;;;1.75;1.40;;;;;;;;;;5075043;28;20048;-81
2023/08/02 05:29:15;;;;;;;1.25;1.10;;;;;;;;;;5075420;28;20060;-81
2023/08/02 05:31:40;;;;;;;1.50;1.17;;;;;;;;;;5075025;28;20035;-81
2023/08/02 05:34:06;;;;;;;1.50;1.40;;;;;;;;;;5074050;28;20028;-81
2023/08/02 05:36:31;;;;;;;2.42;1.50;;;;;;;;;;5073399;28;20077;-81
2023/08/02 05:38:56;;;;;;;1.67;1.25;;;;;;;;;;5074804;28;20024;-81
2023/08/02 05:41:22;;;;;;;1.90;1.20;;;;;;;;;;5090080;28;20093;-81
2023/08/02 05:43:47;;;;;;;1.40;1.30;;;;;;;;;;5074822;28;20024;-82
2023/08/02 05:46:13;;;;;;;1.90;1.30;;;;;;;;;;5074672;28;20024;-82
2023/08/02 05:48:38;;;;;;;2.67;1.30;;;;;;;;;;5074413;28;20036;-82
2023/08/02 05:51:03;;;;;;;2.40;1.33;;;;;;;;;;5074722;28;20525;-81
2023/08/02 05:53:29;;;;;;;1.55;1.35;;;;;;;;;;5074620;28;20039;-81
2023/08/02 05:55:58;;;;;;;2.20;1.27;;;;;;;;;;5074559;28;20028;-81
2023/08/02 05:58:23;;;;;;;1.30;1.20;;;;;;;;;;5073185;28;20033;-82
2023/08/02 06:00:49;;;;;;;2.47;1.60;;;;;;;;;;5074283;28;20047;-81
2023/08/02 06:03:14;;;;;;;3.50;1.58;;;;;;;;;;5072885;28;20029;-81
2023/08/02 06:05:39;;;;;;;7.32;1.25;;;;;;;;;;5073050;28;20020;-81
2023/08/02 06:08:05;;;;;;;3.22;1.40;;;;;;;;;;5072551;28;20041;-81
2023/08/02 06:10:30;;;;;;;2.67;1.70;;;;;;;;;;5073896;28;20035;-80
2023/08/02 06:12:57;;;;;;;3.20;1.58;;;;;;;;;;5072647;28;20079;-81
2023/08/02 06:15:22;;;;;;;1.83;1.30;;;;;;;;;;5072749;28;20040;-80
2023/08/02 06:17:48;;;;;;;2.10;1.48;;;;;;;;;;5072534;28;20111;-81
2023/08/02 06:20:13;;;;;;;2.88;1.40;;;;;;;;;;5074210;28;20490;-82
2023/08/02 06:22:40;;;;;;;3.83;1.30;;;;;;;;;;5072477;28;20036;-80
2023/08/02 06:25:06;;;;;;;1.50;1.30;;;;;;;;;;5072502;28;20071;-80
2023/08/02 06:27:31;;;;;;;2.03;1.20;;;;;;;;;;5056242;28;20033;-81
2023/08/02 06:29:57;;;;;;;2.22;1.40;;;;;;;;;;5073707;28;20540;-81
2023/08/02 06:32:22;;;;;;;1.58;1.30;;;;;;;;;;5072326;28;20040;-81
2023/08/02 06:34:48;;;;;;;2.15;1.20;;;;;;;;;;5073594;28;20111;-81
2023/08/02 06:37:13;;;;;;;2.53;1.48;;;;;;;;;;5073872;28;20024;-81
2023/08/02 06:39:38;;;;;;;1.80;1.30;;;;;;;;;;5072501;28;20048;-81
2023/08/02 06:42:04;;;;;;;1.60;1.20;;;;;;;;;;5073970;28;20406;-81
2023/08/02 06:44:29;;;;;;;1.20;1.10;;;;;;;;;;5073399;28;20050;-81
2023/08/02 06:46:55;;;;;;;1.77;1.40;;;;;;;;;;5073892;28;20039;-81
2023/08/02 06:49:20;;;;;;;1.45;1.35;;;;;;;;;;5072078;28;20072;-81
2023/08/02 06:51:45;;;;;;;1.42;1.23;;;;;;;;;;5072443;28;20037;-81
2023/08/02 06:54:12;;;;;;;2.00;1.58;;;;;;;;;;5073524;28;20107;-82
2023/08/02 06:56:37;;;;;;;3.15;1.30;;;;;;;;;;5072175;28;20032;-81
2023/08/02 06:59:03;;;;;;;1.95;1.50;;;;;;;;;;5073321;28;20029;-81
2023/08/02 07:01:28;;;;;;;1.60;1.30;;;;;;;;;;5072595;28;20381;-81
2023/08/02 07:03:53;;;;;;;1.58;1.30;;;;;;;;;;5072036;28;20223;-82
2023/08/02 07:06:20;;;;;;;2.00;1.35;;;;;;;;;;5055066;28;20127;-81
2023/08/02 07:08:46;;;;;;;2.15;1.13;;;;;;;;;;5072541;28;20451;-81
2023/08/02 07:11:11;;;;;;;1.88;1.25;;;;;;;;;;5072282;28;20021;-81
2023/08/02 07:13:37;;;;;;;1.98;1.52;;;;;;;;;;5072007;28;20029;-81
2023/08/02 07:16:04;;;;;;;2.55;1.40;;;;;;;;;;5055220;28;20028;-81
2023/08/02 07:18:29;;;;;;;2.17;1.42;;;;;;;;;;5071871;28;20019;-81
2023/08/02 07:20:54;;;;;;;1.88;1.40;;;;;;;;;;5072244;28;20029;-82
2023/08/02 07:23:21;;;;;;;2.40;1.23;;;;;;;;;;5071819;28;20032;-81
2023/08/02 07:25:46;;;;;;;1.33;1.23;;;;;;;;;;5055856;28;20029;-82
2023/08/02 07:28:12;;;;;;;1.80;1.40;;;;;;;;;;5072870;28;20040;-81
2023/08/02 07:30:37;;;;;;;2.83;1.50;;;;;;;;;;5073033;28;20032;-81
2023/08/02 07:33:02;;;;;;;1.40;1.30;;;;;;;;;;5073259;28;20063;-80
2023/08/02 07:35:28;;;;;;;1.38;1.27;;;;;;;;;;5071975;28;20101;-81
2023/08/02 07:37:53;;;;;;;1.20;1.10;;;;;;;;;;5072916;28;20029;-81
2023/08/02 07:40:18;;;;;;;2.63;1.40;;;;;;;;;;5071850;28;20395;-81
2023/08/02 07:42:44;;;;;;;1.40;1.30;;;;;;;;;;5073447;28;20040;-81
2023/08/02 07:45:11;;;;;;;1.35;1.20;;;;;;;;;;5054897;28;20039;-81
2023/08/02 07:47:37;;;;;;;1.33;1.20;;;;;;;;;;5071533;28;20236;-81
2023/08/02 07:50:04;;;;;;;1.35;1.15;;;;;;;;;;5071686;28;20116;-82
2023/08/02 07:52:30;;;;;;;1.85;1.20;;;;;;;;;;5054763;28;20074;-81
2023/08/02 07:54:55;;;;;;;1.50;1.20;;;;;;;;;;5073005;28;20033;-82
2023/08/02 07:57:23;;;;;;;1.17;1.10;;;;;;;;;;5072881;28;20056;-80
2023/08/02 07:59:48;;;;;;;1.67;1.20;;;;;;;;;;5071890;28;20043;-81
2023/08/02 08:02:14;;;;;;;1.30;1.20;;;;;;;;;;5072971;28;20481;-81
2023/08/02 08:04:50;;;;;;;1.38;1.27;;;;;;;;;;5072893;28;20031;-79
2023/08/02 08:07:20;;;;;;;1.50;1.35;;;;;;;;;;5077050;28;20039;-80
2023/08/02 08:09:45;;;;;;;1.30;1.20;;;;;;;;;;5058911;28;20502;-81
2023/08/02 08:12:13;;;;;;;1.77;1.15;;;;;;;;;;5059482;28;20025;-79
2023/08/02 08:14:41;;;;;;;1.20;1.10;;;;;;;;;;5077816;28;20020;-81
2023/08/02 08:17:06;;;;;;;1.20;1.10;;;;;;;;;;5042273;28;20032;-81
2023/08/02 08:19:33;;;;;;;1.30;1.20;;;;;;;;;;5076305;28;20036;-81
2023/08/02 08:21:58;;;;;;;2.72;1.10;;;;;;;;;;5074651;28;20025;-81
2023/08/02 08:24:24;;;;;;;0.93;0.93;;;;;;;;;;5074755;28;20131;-81
2023/08/02 08:26:52;;;;;;;1.45;1.10;;;;;;;;;;5076448;28;20106;-83
2023/08/02 08:29:17;;;;;;;2.72;1.30;;;;;;;;;;5074816;28;20029;-82
2023/08/02 08:31:43;;;;;;;0.82;0.82;;;;;;;;;;5074074;28;20024;-82
2023/08/02 08:34:08;;;;;;;0.85;0.85;;;;;;;;;;5075384;28;20448;-82
2023/08/02 08:36:34;;;;;;;1.30;1.10;;;;;;;;;;5075294;28;20031;-81
2023/08/02 08:38:59;;;;;;;1.20;0.93;;;;;;;;;;5075177;28;20439;-82
2023/08/02 08:41:25;;;;;;;1.27;1.00;;;;;;;;;;5075330;28;20483;-83
2023/08/02 08:43:50;;;;;;;0.95;0.95;;;;;;;;;;5075228;28;20426;-82
2023/08/02 08:46:16;;;;;;;1.05;0.90;;;;;;;;;;5073828;28;20024;-82
2023/08/02 08:48:42;;;;;;;0.80;0.80;;;;;;;;;;5073821;28;20454;-82
2023/08/02 08:51:12;;;;;;;0.88;0.88;;;;;;;;;;5073897;28;20483;-82
2023/08/02 08:53:44;;;;;;;1.05;0.98;;;;;;;;;;5090457;28;20368;-83
2023/08/02 08:56:10;;;;;;;1.40;1.15;;;;;;;;;;5073691;28;20036;-83
2023/08/02 08:58:37;;;;;;;1.45;0.90;;;;;;;;;;5073945;28;20016;-82
2023/08/02 09:01:04;;;;;;;0.90;0.90;;;;;;;;;;5074719;28;20038;-82
2023/08/02 09:03:29;;;;;;;1.20;0.73;;;;;;;;;;5074187;28;20498;-83
2023/08/02 09:05:59;;;;;;;1.30;1.00;;;;;;;;;;5075582;28;20020;-82
2023/08/02 09:08:25;;;;;;;1.58;0.90;;;;;;;;;;5075407;28;20046;-82
2023/08/02 09:10:50;;;;;;;1.08;0.98;;;;;;;;;;5075599;28;20112;-82
2023/08/02 09:13:27;;;;;;;1.25;0.93;;;;;;;;;;5074080;28;20056;-82
2023/08/02 09:16:22;;;;;;;1.13;0.88;;;;;;;;;;5073587;28;20036;-81
2023/08/02 09:18:47;;;;;;;0.70;0.70;;;;;;;;;;5062126;28;20044;-82
2023/08/02 09:21:21;;;;;;;0.85;0.85;;;;;;;;;;5075490;28;20539;-82
2023/08/02 09:23:47;;;;;;;1.00;0.65;;;;;;;;;;5073907;28;20487;-82
2023/08/02 09:26:17;;;;;;;0.73;0.68;;;;;;;;;;5073796;28;20541;-82
2023/08/02 09:29:04;;;;;;;0.80;0.70;;;;;;;;;;5074920;28;20029;-81
2023/08/02 09:31:31;;;;;;;0.73;0.73;;;;;;;;;;5057049;28;20392;-81
2023/08/02 09:33:56;;;;;;;1.20;0.90;;;;;;;;;;5073826;28;20383;-81
2023/08/02 09:36:35;;;;;;;0.60;0.60;;;;;;;;;;5073616;28;20028;-82
2023/08/02 09:39:18;;;;;;;1.08;0.80;;;;;;;;;;5073534;28;20028;-81
2023/08/02 09:41:44;;;;;;;0.88;0.77;;;;;;;;;;5073504;28;20074;-81
2023/08/02 09:44:19;;;;;;;0.65;0.65;;;;;;;;;;5073490;28;20032;-79
2023/08/02 09:46:44;;;;;;;0.80;0.65;;;;;;;;;;5073624;28;21893;-79
2023/08/02 09:49:20;;;;;;;0.88;0.70;;;;;;;;;;5073042;28;20064;-79
2023/08/02 09:51:46;;;;;;;0.95;0.95;;;;;;;;;;5073470;28;20082;-80
2023/08/02 09:54:13;;;;;;;0.70;0.70;;;;;;;;;;5073283;28;20368;-80
2023/08/02 09:56:40;;;;;;;0.60;0.60;;;;;;;;;;5073775;28;20024;-80
2023/08/02 09:59:06;;;;;;;0.82;0.80;;;;;;;;;;5073194;28;20060;-80
2023/08/02 10:01:33;;;;;;;0.70;0.70;;;;;;;;;;5073421;28;20032;-80
2023/08/02 10:04:08;;;;;;;1.33;0.70;;;;;;;;;;5073377;28;20028;-80
2023/08/02 10:06:44;;;;;;;0.80;0.70;;;;;;;;;;5072808;28;20146;-79
2023/08/02 10:09:11;;;;;;;1.85;0.70;;;;;;;;;;5072938;28;20070;-81
2023/08/02 10:12:01;;;;;;;0.77;0.70;;;;;;;;;;5056193;28;20027;-81
2023/08/02 10:14:30;;;;;;;0.60;0.60;;;;;;;;;;5073765;28;20035;-81
2023/08/02 10:16:59;;;;;;;0.50;0.50;;;;;;;;;;5074005;28;20064;-81
2023/08/02 10:19:26;;;;;;;1.40;0.80;;;;;;;;;;5072636;28;20028;-82
2023/08/02 10:21:52;;;;;;;0.70;0.70;;;;;;;;;;5072753;28;20089;-81
2023/08/02 10:24:18;;;;;;;2.47;0.60;;;;;;;;;;5074014;28;20101;-81
2023/08/02 10:26:44;;;;;;;1.00;0.70;;;;;;;;;;5073329;28;20112;-81
2023/08/02 10:29:09;;;;;;;1.25;0.70;;;;;;;;;;5073360;28;20044;-81
2023/08/02 10:31:35;;;;;;;0.85;0.55;;;;;;;;;;5072788;28;20033;-81
2023/08/02 10:34:00;;;;;;;0.50;0.50;;;;;;;;;;5055790;28;20035;-81
2023/08/02 10:36:26;;;;;;;2.67;0.70;;;;;;;;;;5073898;28;20040;-81
2023/08/02 10:38:55;;;;;;;0.70;0.70;;;;;;;;;;5073902;28;20485;-80
2023/08/02 10:41:22;;;;;;;0.70;0.70;;;;;;;;;;5072671;28;20028;-81
2023/08/02 10:43:51;;;;;;;2.00;0.70;;;;;;;;;;5072703;28;20361;-80
2023/08/02 10:46:18;;;;;;;1.13;0.80;;;;;;;;;;5073770;28;20073;-80
2023/08/02 10:48:43;;;;;;;0.60;0.60;;;;;;;;;;5072178;28;20028;-80
2023/08/02 10:51:27;;;;;;;0.60;0.60;;;;;;;;;;5073800;28;20025;-81
2023/08/02 10:54:22;;;;;;;1.08;0.70;;;;;;;;;;5073780;28;20035;-81
2023/08/02 10:56:54;;;;;;;1.65;0.90;;;;;;;;;;5072160;28;20086;-81
2023/08/02 10:59:23;;;;;;;0.90;0.77;;;;;;;;;;5073251;28;20021;-80
2023/08/02 11:01:58;;;;;;;1.55;0.70;;;;;;;;;;5073358;28;20476;-81
2023/08/02 11:04:24;;;;;;;2.15;0.90;;;;;;;;;;5072130;28;20487;-81
2023/08/02 11:06:50;;;;;;;1.85;0.77;;;;;;;;;;5072043;28;20020;-81
2023/08/02 11:09:16;;;;;;;0.85;0.77;;;;;;;;;;5072220;28;20361;-81
2023/08/02 11:11:41;;;;;;;0.73;0.73;;;;;;;;;;5071928;28;20016;-79
2023/08/02 11:14:07;;;;;;;1.10;1.00;;;;;;;;;;5055400;28;20040;-79
2023/08/02 11:16:40;;;;;;;1.58;0.80;;;;;;;;;;5073153;28;20056;-81
2023/08/02 11:19:12;;;;;;;0.97;0.90;;;;;;;;;;5072009;28;20021;-79
2023/08/02 11:21:38;;;;;;;2.88;0.82;;;;;;;;;;5072096;28;20024;-82
2023/08/02 11:24:03;;;;;;;1.02;0.80;;;;;;;;;;5071928;28;20432;-82
2023/08/02 11:26:30;;;;;;;0.80;0.80;;;;;;;;;;5072973;28;20040;-82
2023/08/02 11:28:55;;;;;;;0.77;0.77;;;;;;;;;;5071877;28;20025;-81
2023/08/02 11:31:25;;;;;;;1.80;0.88;;;;;;;;;;5071932;28;20017;-83
2023/08/02 11:33:50;;;;;;;0.70;0.70;;;;;;;;;;5073312;28;20024;-84
2023/08/02 11:36:16;;;;;;;4.30;1.00;;;;;;;;;;5071820;28;20558;-81
2023/08/02 11:38:41;;;;;;;0.70;0.70;;;;;;;;;;5072941;28;20468;-79
2023/08/02 11:41:21;;;;;;;1.65;1.00;;;;;;;;;;5076944;28;20028;-81
2023/08/02 11:43:47;;;;;;;1.00;0.88;;;;;;;;;;5077209;28;20056;-83
2023/08/02 11:46:27;;;;;;;0.95;0.82;;;;;;;;;;5075999;28;20428;-83
2023/08/02 11:48:52;;;;;;;1.00;0.80;;;;;;;;;;5077742;28;20084;-84
2023/08/02 11:51:21;;;;;;;1.52;0.70;;;;;;;;;;5076118;28;20109;-83
2023/08/02 11:53:49;;;;;;;2.17;0.80;;;;;;;;;;5077059;28;20036;-84
2023/08/02 11:56:14;;;;;;;1.35;0.80;;;;;;;;;;5075484;28;20031;-87
2023/08/02 11:58:40;;;;;;;1.10;0.90;;;;;;;;;;5075405;28;20100;-83
2023/08/02 12:01:05;;;;;;;0.60;0.60;;;;;;;;;;5075697;28;20375;-84
2023/08/02 12:03:31;;;;;;;3.72;1.08;;;;;;;;;;5076541;28;20029;-84
2023/08/02 12:06:00;;;;;;;2.03;0.98;;;;;;;;;;5076451;28;20074;-82
2023/08/02 12:08:25;;;;;;;0.65;0.65;;;;;;;;;;5075525;28;20123;-82
2023/08/02 12:10:51;;;;;;;1.42;0.73;;;;;;;;;;5076664;28;20483;-82
2023/08/02 12:13:17;;;;;;;0.90;0.80;;;;;;;;;;5058841;28;20111;-81
2023/08/02 12:16:04;;;;;;;1.85;0.90;;;;;;;;;;5058471;28;20028;-81
2023/08/02 12:18:29;;;;;;;1.80;1.02;;;;;;;;;;5074945;28;20020;-82
2023/08/02 12:20:55;;;;;;;1.42;0.90;;;;;;;;;;5075504;28;20487;-81
2023/08/02 12:23:34;;;;;;;1.98;0.77;;;;;;;;;;5075082;28;20407;-81
2023/08/02 12:26:00;;;;;;;2.22;1.15;;;;;;;;;;5076104;28;20111;-82
2023/08/02 12:28:25;;;;;;;4.38;1.25;;;;;;;;;;5074907;28;20414;-82
2023/08/02 12:31:04;;;;;;;1.50;1.00;;;;;;;;;;5074762;28;20410;-81
2023/08/02 12:33:31;;;;;;;1.48;1.10;;;;;;;;;;5058056;28;20028;-82
2023/08/02 12:35:56;;;;;;;2.03;0.82;;;;;;;;;;5075053;28;20078;-82
2023/08/02 12:38:23;;;;;;;2.72;1.00;;;;;;;;;;5076191;28;20487;-82
2023/08/02 12:40:48;;;;;;;1.45;0.80;;;;;;;;;;5075787;28;20028;-82
2023/08/02 12:43:15;;;;;;;2.58;0.85;;;;;;;;;;5074789;28;20032;-82
2023/08/02 12:45:40;;;;;;;1.58;1.00;;;;;;;;;;5074852;28;20116;-82
2023/08/02 12:48:05;;;;;;;1.55;1.10;;;;;;;;;;5075915;28;20170;-82
2023/08/02 12:50:31;;;;;;;3.95;1.42;;;;;;;;;;5074031;28;20029;-82
2023/08/02 12:52:56;;;;;;;2.20;1.10;;;;;;;;;;5074612;28;20028;-82
2023/08/02 12:55:22;;;;;;;2.47;1.10;;;;;;;;;;5074328;28;20043;-82
2023/08/02 12:57:47;;;;;;;2.45;1.13;;;;;;;;;;5074219;28;20029;-82
2023/08/02 13:00:12;;;;;;;5.10;1.40;;;;;;;;;;5074523;28;20111;-83
2023/08/02 13:02:39;;;;;;;2.08;1.20;;;;;;;;;;5074797;28;20028;-82
2023/08/02 13:05:05;;;;;;;3.00;1.20;;;;;;;;;;5075339;28;20028;-82
2023/08/02 13:07:31;;;;;;;2.47;0.85;;;;;;;;;;5090845;28;20028;-82
2023/08/02 13:09:57;;;;;;;2.80;1.23;;;;;;;;;;5074289;28;20103;-82
2023/08/02 13:12:23;;;;;;;3.80;1.20;;;;;;;;;;5072036;28;20590;-81
2023/08/02 13:14:48;;;;;;;2.92;1.17;;;;;;;;;;5079932;28;20085;-80
2023/08/02 13:17:14;;;;;;;2.53;1.08;;;;;;;;;;5078209;28;20042;-81
2023/08/02 13:19:39;;;;;;;2.63;1.15;;;;;;;;;;5107196;28;20067;-81
2023/08/02 13:22:05;;;;;;;2.95;1.10;;;;;;;;;;5074869;28;20474;-81
2023/08/02 13:24:30;;;;;;;3.53;1.20;;;;;;;;;;5084106;28;20044;-81
2023/08/02 13:26:56;;;;;;;2.65;0.88;;;;;;;;;;5080697;28;20039;-81
2023/08/02 13:29:21;;;;;;;1.13;0.80;;;;;;;;;;5087829;28;20048;-81
2023/08/02 13:31:46;;;;;;;3.05;0.90;;;;;;;;;;5107124;28;20069;-80
2023/08/02 13:34:12;;;;;;;2.35;0.80;;;;;;;;;;5081333;28;20039;-81
2023/08/02 13:36:37;;;;;;;1.67;0.85;;;;;;;;;;5082958;28;20032;-81
2023/08/02 13:39:03;;;;;;;1.65;0.80;;;;;;;;;;5063343;28;20029;-82
2023/08/02 13:41:28;;;;;;;1.73;0.70;;;;;;;;;;5070311;28;20029;-81
2023/08/02 13:43:54;;;;;;;1.73;0.80;;;;;;;;;;5054899;28;20521;-80
2023/08/02 13:46:19;;;;;;;2.03;1.00;;;;;;;;;;5070009;28;20060;-80
2023/08/02 13:48:45;;;;;;;3.92;0.90;;;;;;;;;;5071190;28;20479;-81
2023/08/02 13:51:10;;;;;;;3.45;1.00;;;;;;;;;;5123066;27;20394;-81
2023/08/02 13:53:37;;;;;;;3.05;1.05;;;;;;;;;;5095317;28;20020;-80
2023/08/02 13:56:02;;;;;;;1.65;0.90;;;;;;;;;;5094942;28;20027;-82
2023/08/02 13:58:27;;;;;;;5.38;0.90;;;;;;;;;;5093527;28;20097;-81
2023/08/02 14:00:53;;;;;;;2.72;0.90;;;;;;;;;;5094906;28;20115;-80
2023/08/02 14:03:18;;;;;;;5.00;1.30;;;;;;;;;;5093277;28;20050;-80
2023/08/02 14:05:45;;;;;;;1.85;0.73;;;;;;;;;;5093699;28;20032;-81
2023/08/02 14:08:11;;;;;;;2.25;0.77;;;;;;;;;;5094323;28;20039;-79
2023/08/02 14:10:36;;;;;;;2.13;0.93;;;;;;;;;;5093171;28;20393;-79
2023/08/02 14:13:01;;;;;;;1.27;0.75;;;;;;;;;;5094296;28;20539;-80
2023/08/02 14:15:27;;;;;;;5.55;1.10;;;;;;;;;;5094471;28;20031;-80
2023/08/02 14:17:52;;;;;;;1.10;0.77;;;;;;;;;;5094245;28;20055;-80
2023/08/02 14:20:17;;;;;;;2.40;0.95;;;;;;;;;;5094698;28;20043;-80
2023/08/02 14:22:43;;;;;;;1.75;0.90;;;;;;;;;;5094160;28;20066;-79
2023/08/02 14:25:10;;;;;;;2.33;0.85;;;;;;;;;;5092715;28;20059;-80
2023/08/02 14:27:36;;;;;;;1.08;0.77;;;;;;;;;;5076231;28;20028;-81
2023/08/02 14:30:01;;;;;;;1.70;0.77;;;;;;;;;;5092865;28;20032;-81
2023/08/02 14:32:27;;;;;;;1.63;0.75;;;;;;;;;;5094454;28;20062;-81
2023/08/02 14:34:52;;;;;;;1.42;0.98;;;;;;;;;;5094375;28;20032;-81
2023/08/02 14:37:17;;;;;;;3.13;1.00;;;;;;;;;;5093101;28;20524;-81
2023/08/02 14:39:43;;;;;;;2.47;1.15;;;;;;;;;;5094396;28;20070;-79